Time;durP1;ratioP1;P1;durP2;ratioP2;P2;SDS_P1;SDS_P2;PMS_P1;PMS_P2;Temp;Humidity;BMP_temperature;BMP_pressure;BME280_temperature;BME280_humidity;BME280_pressure;Samples;Min_cycle;Max_cycle;Signal;HPM_P1;HPM_P2
2023/04/24 00:02:46;;;;;;;9.88;8.15;;;18.90;51.30;;;;;;5963922;24;20173;-87
2023/04/24 00:05:20;;;;;;;9.32;7.22;;;18.80;51.40;;;;;;5939369;24;20165;-88
2023/04/24 00:08:01;;;;;;;9.35;7.70;;;18.80;51.40;;;;;;5978587;24;20236;-88
2023/04/24 00:10:34;;;;;;;8.90;7.30;;;18.80;51.30;;;;;;5966370;24;20160;-87
2023/04/24 00:13:06;;;;;;;10.68;7.82;;;18.80;51.30;;;;;;5955331;24;20182;-88
2023/04/24 00:16:07;;;;;;;7.90;6.90;;;18.90;51.40;;;;;;5939204;24;20180;-88
2023/04/24 00:18:42;;;;;;;9.27;7.15;;;18.80;51.20;;;;;;5975219;24;20196;-87
2023/04/24 00:21:21;;;;;;;10.55;7.35;;;18.80;51.30;;;;;;6022634;23;20162;-88
2023/04/24 00:24:37;;;;;;;9.77;6.97;;;18.80;51.40;;;;;;6016196;23;20156;-88
2023/04/24 00:27:14;;;;;;;10.25;7.68;;;18.80;51.30;;;;;;5896999;23;20164;-87
2023/04/24 00:30:08;;;;;;;9.18;7.15;;;18.80;51.30;;;;;;6056030;23;20169;-88
2023/04/24 00:33:07;;;;;;;8.15;6.72;;;18.80;51.30;;;;;;6021811;23;20242;-87
2023/04/24 00:35:42;;;;;;;7.88;7.07;;;18.80;51.30;;;;;;5903055;24;20159;-87
2023/04/24 00:38:16;;;;;;;8.43;7.18;;;18.80;51.30;;;;;;5930614;24;20189;-87
2023/04/24 00:41:17;;;;;;;8.93;6.88;;;18.80;51.40;;;;;;5915623;24;20164;-88
2023/04/24 00:44:30;;;;;;;8.25;7.00;;;18.80;51.30;;;;;;5918373;24;20153;-87
2023/04/24 00:47:19;;;;;;;8.70;7.78;;;18.80;51.30;;;;;;5918260;24;20169;-87
2023/04/24 00:50:13;;;;;;;9.43;6.90;;;18.80;52.10;;;;;;5927034;24;20196;-87
2023/04/24 00:53:06;;;;;;;9.20;7.65;;;18.80;51.20;;;;;;5917014;24;20169;-87
2023/04/24 00:55:42;;;;;;;8.15;7.00;;;18.80;51.40;;;;;;5917213;24;20157;-87
2023/04/24 00:59:19;;;;;;;8.55;7.38;;;18.80;51.40;;;;;;5908173;24;20627;-87
2023/04/24 01:01:45;;;;;;;10.55;6.88;;;18.80;51.40;;;;;;5866937;24;20162;-87
2023/04/24 01:04:44;;;;;;;9.98;7.20;;;18.70;51.40;;;;;;5931340;24;20181;-87
2023/04/24 01:07:32;;;;;;;9.77;7.32;;;18.80;51.40;;;;;;5921949;24;20161;-87
2023/04/24 01:10:16;;;;;;;8.43;7.05;;;18.80;51.50;;;;;;5913467;24;20142;-87
2023/04/24 01:12:43;;;;;;;8.85;7.35;;;18.80;51.40;;;;;;5825329;24;20573;-86
2023/04/24 01:15:14;;;;;;;7.97;6.78;;;18.80;51.40;;;;;;5801762;24;20176;-87
2023/04/24 01:17:55;;;;;;;9.18;6.88;;;18.80;51.40;;;;;;5738579;24;20192;-87
2023/04/24 01:20:33;;;;;;;8.57;7.10;;;18.80;51.40;;;;;;5786061;24;20167;-87
2023/04/24 01:23:04;;;;;;;8.07;6.90;;;18.80;51.40;;;;;;5798027;24;20155;-87
2023/04/24 01:25:40;;;;;;;8.23;6.72;;;18.70;51.40;;;;;;5930994;23;20179;-87
2023/04/24 01:28:13;;;;;;;7.88;6.80;;;18.80;51.40;;;;;;5935875;23;20615;-88
2023/04/24 01:30:46;;;;;;;8.18;6.97;;;18.80;51.30;;;;;;5977760;24;20160;-87
2023/04/24 01:33:35;;;;;;;8.48;7.35;;;18.70;51.40;;;;;;6000430;24;20194;-87
2023/04/24 01:36:22;;;;;;;10.07;7.55;;;18.80;51.40;;;;;;6072492;23;20158;-88
2023/04/24 01:39:27;;;;;;;;;;;;;;;;;;;;;
2023/04/24 01:42:24;;;;;;;7.60;6.85;;;18.70;51.40;;;;;;6103852;23;20169;-88
2023/04/24 01:44:59;;;;;;;9.52;6.93;;;18.80;51.50;;;;;;6126366;23;20152;-87
2023/04/24 01:47:33;;;;;;;8.57;6.95;;;18.70;51.60;;;;;;6144313;23;20155;-87
2023/04/24 01:50:22;;;;;;;8.32;6.93;;;18.70;52.30;;;;;;6091340;23;20206;-87
2023/04/24 01:53:13;;;;;;;9.85;6.97;;;18.70;51.50;;;;;;6042372;23;20615;-87
2023/04/24 01:55:45;;;;;;;9.57;7.25;;;18.70;51.50;;;;;;6113472;23;20161;-87
2023/04/24 01:58:47;;;;;;;8.98;7.30;;;18.70;51.50;;;;;;6027353;23;20187;-86
2023/04/24 02:01:49;;;;;;;8.73;7.35;;;18.70;51.60;;;;;;5993041;23;20202;-89
2023/04/24 02:04:17;;;;;;;9.20;6.97;;;18.70;51.50;;;;;;5949047;24;20155;-87
2023/04/24 02:07:12;;;;;;;8.00;7.10;;;18.70;51.60;;;;;;5970821;24;20157;-88
2023/04/24 02:10:18;;;;;;;8.25;7.03;;;18.70;51.60;;;;;;5987588;24;20163;-88
2023/04/24 02:13:17;;;;;;;9.23;7.03;;;18.70;51.60;;;;;;5999404;24;20159;-86
2023/04/24 02:16:09;;;;;;;8.18;6.93;;;18.70;51.60;;;;;;5985908;23;20155;-87
2023/04/24 02:21:32;;;;;;;8.73;6.60;;;18.70;51.60;;;;;;6026269;23;20151;-86
2023/04/24 02:24:15;;;;;;;8.68;6.90;;;18.70;51.60;;;;;;6002944;23;20154;-87
2023/04/24 02:27:15;;;;;;;10.07;6.50;;;18.70;51.70;;;;;;6003912;23;20627;-87
2023/04/24 02:29:51;;;;;;;7.55;6.70;;;18.60;51.60;;;;;;6090712;23;20172;-86
2023/04/24 02:32:22;;;;;;;7.40;6.60;;;18.60;51.60;;;;;;6064631;23;20679;-88
2023/04/24 02:35:30;;;;;;;8.05;7.22;;;18.60;51.60;;;;;;6081638;23;20160;-88
2023/04/24 02:38:02;;;;;;;7.38;6.43;;;18.60;51.60;;;;;;6045654;23;20185;-88
2023/04/24 02:40:42;;;;;;;7.40;6.65;;;18.60;51.70;;;;;;6030637;23;20154;-87
2023/04/24 02:43:20;;;;;;;9.98;7.35;;;18.60;51.60;;;;;;6007962;23;20158;-87
2023/04/24 02:46:07;;;;;;;8.48;7.00;;;18.60;51.60;;;;;;6007990;23;20153;-86
2023/04/24 02:48:47;;;;;;;8.20;7.25;;;18.60;51.60;;;;;;6009705;23;20158;-88
2023/04/24 02:51:54;;;;;;;8.30;6.82;;;18.60;51.70;;;;;;6030551;23;20227;-86
2023/04/24 02:54:38;;;;;;;9.48;6.95;;;18.60;51.80;;;;;;6045689;23;20166;-87
2023/04/24 02:57:16;;;;;;;8.02;7.00;;;18.60;51.70;;;;;;5979405;23;20219;-86
2023/04/24 02:59:53;;;;;;;7.68;6.20;;;18.60;51.70;;;;;;6006067;23;20153;-86
2023/04/24 03:02:46;;;;;;;8.70;6.68;;;18.60;51.70;;;;;;6026689;23;20229;-87
2023/04/24 03:05:18;;;;;;;9.32;7.13;;;18.50;51.60;;;;;;6085052;23;20243;-87
2023/04/24 03:07:57;;;;;;;8.48;6.47;;;18.60;51.70;;;;;;6087587;23;20204;-87
2023/04/24 03:10:36;;;;;;;7.65;6.70;;;18.60;51.80;;;;;;6083379;23;20153;-87
2023/04/24 03:16:23;;;;;;;8.60;6.85;;;18.60;51.70;;;;;;6034237;23;20161;-85
2023/04/24 03:19:33;;;;;;;7.38;6.47;;;18.60;51.80;;;;;;6053735;23;20201;-86
2023/04/24 03:22:05;;;;;;;9.38;6.88;;;18.60;51.70;;;;;;5984982;23;20220;-88
2023/04/24 03:24:56;;;;;;;7.40;6.60;;;18.50;51.70;;;;;;5970056;24;20163;-86
2023/04/24 03:27:54;;;;;;;8.73;6.88;;;18.60;51.70;;;;;;6011250;23;20219;-87
2023/04/24 03:30:36;;;;;;;7.70;6.38;;;18.60;51.80;;;;;;5996999;23;20212;-86
2023/04/24 03:33:33;;;;;;;7.70;6.90;;;18.60;51.80;;;;;;6027011;23;20214;-87
2023/04/24 03:36:10;;;;;;;8.25;6.90;;;18.60;52.30;;;;;;6026043;23;20245;-88
2023/04/24 03:39:34;;;;;;;7.13;6.18;;;18.60;51.70;;;;;;5973333;24;20207;-86
2023/04/24 03:42:06;;;;;;;8.13;6.70;;;18.60;51.70;;;;;;5945023;23;20153;-86
2023/04/24 03:45:03;;;;;;;9.02;6.13;;;18.60;51.70;;;;;;6026936;23;20155;-87
2023/04/24 03:47:57;;;;;;;7.40;6.40;;;18.50;51.70;;;;;;5980984;23;20169;-87
2023/04/24 03:54:00;;;;;;;7.88;6.60;;;18.60;51.70;;;;;;6066135;23;20156;-87
2023/04/24 03:57:01;;;;;;;7.25;6.45;;;18.60;51.70;;;;;;5999581;24;20166;-88
2023/04/24 04:00:23;;;;;;;7.50;6.45;;;18.60;51.70;;;;;;5971394;24;20172;-88
2023/04/24 04:03:06;;;;;;;8.35;6.30;;;18.60;51.80;;;;;;5948389;24;20160;-87
2023/04/24 04:06:21;;;;;;;8.27;6.30;;;18.60;51.70;;;;;;6004611;23;20158;-87
2023/04/24 04:09:08;;;;;;;7.75;6.60;;;18.60;51.70;;;;;;6000602;23;20151;-87
2023/04/24 04:11:42;;;;;;;7.05;6.25;;;18.60;51.80;;;;;;6038479;23;20234;-88
2023/04/24 04:14:19;;;;;;;8.55;6.45;;;18.60;51.80;;;;;;5998473;23;20150;-87
2023/04/24 04:17:14;;;;;;;6.45;5.85;;;18.60;51.80;;;;;;5998802;23;20155;-87
2023/04/24 04:19:44;;;;;;;8.77;6.50;;;18.60;51.80;;;;;;6026659;23;20157;-88
2023/04/24 04:22:46;;;;;;;7.43;6.47;;;18.60;51.80;;;;;;6050478;23;20174;-87
2023/04/24 04:25:15;;;;;;;8.18;6.30;;;18.60;51.80;;;;;;6076560;23;20158;-86
2023/04/24 04:27:53;;;;;;;8.77;6.15;;;18.50;51.70;;;;;;6074037;23;20153;-88
2023/04/24 04:30:39;;;;;;;7.07;6.38;;;18.50;51.70;;;;;;6085695;23;20173;-86
2023/04/24 04:33:28;;;;;;;7.00;6.30;;;18.60;51.60;;;;;;6100214;23;20221;-88
2023/04/24 04:39:17;;;;;;;7.38;6.57;;;18.50;51.80;;;;;;5985970;24;20192;-88
2023/04/24 04:42:13;;;;;;;7.38;5.88;;;18.50;51.70;;;;;;5957180;24;20172;-87
2023/04/24 04:45:28;;;;;;;8.13;6.28;;;18.50;51.80;;;;;;5893335;24;20164;-88
2023/04/24 04:48:31;;;;;;;8.60;6.55;;;18.40;51.60;;;;;;5941694;24;20161;-87
2023/04/24 04:51:38;;;;;;;8.32;6.47;;;18.50;51.80;;;;;;5941712;24;20204;-86
2023/04/24 04:54:48;;;;;;;7.50;6.45;;;18.50;51.80;;;;;;5950023;24;20150;-88
2023/04/24 04:57:30;;;;;;;7.68;6.32;;;18.50;51.80;;;;;;5999378;24;20175;-87
2023/04/24 05:00:35;;;;;;;;;;;;;;;;;;;;;
2023/04/24 05:03:39;;;;;;;7.68;6.38;;;18.50;51.70;;;;;;5992241;24;20160;-87
2023/04/24 05:06:37;;;;;;;7.82;6.10;;;18.60;51.70;;;;;;5971774;24;20185;-87
2023/04/24 05:09:22;;;;;;;8.00;6.35;;;18.50;51.70;;;;;;5970557;24;20156;-86
2023/04/24 05:12:25;;;;;;;7.82;6.47;;;18.50;51.70;;;;;;5926707;24;20156;-88
2023/04/24 05:14:51;;;;;;;6.65;5.90;;;18.50;51.80;;;;;;5896840;24;20235;-88
2023/04/24 05:17:39;;;;;;;7.10;6.00;;;18.50;51.70;;;;;;5925497;24;20201;-88
2023/04/24 05:20:13;;;;;;;7.53;6.55;;;18.50;51.80;;;;;;5953544;24;20160;-88
2023/04/24 05:23:04;;;;;;;8.27;6.60;;;18.50;51.70;;;;;;5908469;24;20159;-88
2023/04/24 05:25:42;;;;;;;7.30;5.70;;;18.50;51.50;;;;;;5917949;24;20279;-87
2023/04/24 05:28:33;;;;;;;7.93;6.72;;;18.50;51.60;;;;;;5874379;24;20161;-89
2023/04/24 05:31:08;;;;;;;7.00;6.15;;;18.50;51.70;;;;;;5887199;24;20167;-88
2023/04/24 05:34:09;;;;;;;8.35;6.00;;;18.50;51.80;;;;;;5921382;24;20221;-89
2023/04/24 05:37:07;;;;;;;7.53;6.45;;;18.50;51.70;;;;;;5844142;24;20168;-89
2023/04/24 05:39:50;;;;;;;6.70;5.95;;;18.50;51.70;;;;;;5917038;24;20167;-88
2023/04/24 05:42:27;;;;;;;7.00;6.18;;;18.50;52.50;;;;;;5896254;24;20214;-87
2023/04/24 05:44:55;;;;;;;7.53;6.05;;;18.50;51.70;;;;;;5909006;24;20236;-86
2023/04/24 05:47:28;;;;;;;8.02;5.95;;;18.50;51.80;;;;;;5934225;24;20160;-89
2023/04/24 05:49:54;;;;;;;7.63;5.95;;;18.50;51.80;;;;;;5973157;23;20225;-88
2023/04/24 05:52:21;;;;;;;7.93;6.10;;;18.50;51.60;;;;;;6087702;23;20157;-88
2023/04/24 05:54:50;;;;;;;7.88;6.38;;;18.50;51.70;;;;;;6038814;23;20157;-88
2023/04/24 05:57:33;;;;;;;9.15;6.15;;;18.50;51.70;;;;;;6111900;23;20203;-88
2023/04/24 05:59:59;;;;;;;7.90;5.80;;;18.50;51.40;;;;;;6063857;23;20149;-86
2023/04/24 06:02:40;;;;;;;6.80;5.53;;;18.50;51.70;;;;;;6090758;23;20148;-88
2023/04/24 06:05:29;;;;;;;6.47;5.75;;;18.50;51.60;;;;;;6100661;23;20153;-88
2023/04/24 06:08:31;;;;;;;7.85;5.82;;;18.50;51.70;;;;;;6059151;23;20154;-88
2023/04/24 06:11:03;;;;;;;7.53;6.22;;;18.50;51.60;;;;;;6018884;23;20225;-88
2023/04/24 06:13:53;;;;;;;6.53;5.85;;;18.50;51.60;;;;;;6035195;23;20170;-88
2023/04/24 06:20:15;;;;;;;;;;;;;;;;;;;;;
2023/04/24 06:22:58;;;;;;;7.80;6.18;;;18.50;51.70;;;;;;5972910;24;20167;-88
2023/04/24 06:26:15;;;;;;;7.88;5.85;;;18.50;51.70;;;;;;5975400;24;20176;-87
2023/04/24 06:29:18;;;;;;;6.35;5.53;;;18.50;51.70;;;;;;5990448;24;20486;-86
2023/04/24 06:32:04;;;;;;;7.80;5.65;;;18.50;51.70;;;;;;5970597;24;20171;-87
2023/04/24 06:34:44;;;;;;;6.93;5.68;;;18.50;51.70;;;;;;5971520;24;20164;-87
2023/04/24 09:32:22;;;;;;;3.63;2.85;;;19.00;51.10;;;;;;6165577;22;20207;-86
2023/04/24 09:35:04;;;;;;;3.85;3.30;;;19.00;51.10;;;;;;6243014;22;20160;-86
2023/04/24 09:37:55;;;;;;;4.32;3.15;;;19.00;51.00;;;;;;6234847;23;20175;-87
2023/04/24 09:40:48;;;;;;;3.67;2.60;;;18.90;50.90;;;;;;6094986;23;20149;-84
2023/04/24 09:43:46;;;;;;;3.40;2.47;;;19.00;50.70;;;;;;6261340;23;20209;-86
2023/04/24 09:46:15;;;;;;;4.22;2.83;;;18.90;50.70;;;;;;6205765;23;20203;-87
2023/04/24 09:48:47;;;;;;;5.07;2.90;;;18.90;50.60;;;;;;6210404;23;20153;-87
2023/04/24 09:51:15;;;;;;;5.65;3.15;;;19.00;50.80;;;;;;6119876;23;20155;-86
2023/04/24 09:53:49;;;;;;;4.13;2.70;;;18.90;50.80;;;;;;6141354;23;20151;-86
2023/04/24 09:56:24;;;;;;;3.50;2.40;;;18.90;50.70;;;;;;6117961;23;20159;-86
2023/04/24 09:59:06;;;;;;;4.45;2.88;;;18.90;50.40;;;;;;6145214;23;20327;-86
2023/04/24 10:01:44;;;;;;;3.55;2.35;;;19.00;50.40;;;;;;6141553;23;20155;-85
2023/04/24 10:04:28;;;;;;;5.63;2.67;;;19.00;50.20;;;;;;6141271;23;20206;-85
2023/04/24 10:07:01;;;;;;;3.08;2.53;;;19.00;50.30;;;;;;6141089;23;20151;-84
2023/04/24 10:09:40;;;;;;;5.45;2.88;;;19.00;50.30;;;;;;6067971;23;20155;-84
2023/04/24 10:12:20;;;;;;;4.30;2.50;;;19.00;50.20;;;;;;6067177;23;20155;-85
2023/04/24 10:15:06;;;;;;;4.38;2.67;;;18.80;50.20;;;;;;6116751;23;20467;-85
2023/04/24 10:17:58;;;;;;;2.58;2.33;;;19.00;50.40;;;;;;6103236;23;20491;-86
2023/04/24 10:20:29;;;;;;;3.85;2.13;;;19.00;50.30;;;;;;6170321;23;20210;-86
2023/04/24 10:22:58;;;;;;;3.28;2.42;;;18.90;50.00;;;;;;6215426;23;20154;-85
2023/04/24 10:25:27;;;;;;;3.40;2.33;;;18.80;50.30;;;;;;6174261;23;20241;-85
2023/04/24 10:27:59;;;;;;;4.95;2.85;;;18.90;50.10;;;;;;6174721;23;20249;-86
2023/04/24 10:30:26;;;;;;;3.45;2.80;;;18.90;50.00;;;;;;6135200;23;20416;-84
2023/04/24 10:33:06;;;;;;;4.20;2.60;;;19.00;50.00;;;;;;6171476;23;20241;-86
2023/04/24 10:35:45;;;;;;;2.92;2.60;;;18.90;50.10;;;;;;6121524;23;20178;-85
2023/04/24 10:38:24;;;;;;;6.03;2.55;;;18.90;50.00;;;;;;6188122;23;20174;-86
2023/04/24 10:41:16;;;;;;;2.67;2.20;;;18.90;50.10;;;;;;6151434;23;20156;-86
2023/04/24 10:43:43;;;;;;;2.65;2.45;;;18.90;49.60;;;;;;6197539;23;20153;-87
2023/04/24 10:46:10;;;;;;;3.22;2.55;;;18.90;50.00;;;;;;6199082;23;20146;-84
2023/04/24 10:48:44;;;;;;;3.15;2.22;;;18.90;50.10;;;;;;6204351;23;20257;-87
2023/04/24 10:51:16;;;;;;;3.00;2.10;;;18.90;50.10;;;;;;6200996;23;20166;-86
2023/04/24 10:53:49;;;;;;;3.95;2.35;;;18.90;49.90;;;;;;6139646;23;20167;-85
2023/04/24 10:56:22;;;;;;;3.40;2.38;;;18.90;49.90;;;;;;6129010;23;20235;-86
2023/04/24 10:58:54;;;;;;;4.63;2.30;;;18.90;50.00;;;;;;6155204;23;20199;-87
2023/04/24 11:01:26;;;;;;;2.45;2.20;;;18.90;50.00;;;;;;6132044;23;20172;-86
2023/04/24 11:04:02;;;;;;;2.55;2.20;;;18.90;50.00;;;;;;6187136;23;20156;-87
2023/04/24 11:06:39;;;;;;;3.45;2.40;;;18.90;49.80;;;;;;6069290;23;20249;-87
2023/04/24 11:09:12;;;;;;;5.25;2.42;;;18.90;49.90;;;;;;6067720;23;20154;-86
2023/04/24 11:11:44;;;;;;;3.20;2.20;;;18.90;49.90;;;;;;6066918;23;20161;-86
2023/04/24 11:14:14;;;;;;;3.10;2.42;;;18.90;49.80;;;;;;6189307;23;20148;-86
2023/04/24 11:16:54;;;;;;;3.13;2.33;;;18.90;49.90;;;;;;6090617;23;20152;-87
2023/04/24 11:19:29;;;;;;;2.95;2.30;;;18.90;49.60;;;;;;6187090;23;20209;-87
2023/04/24 11:22:13;;;;;;;3.38;2.25;;;18.90;49.80;;;;;;6054083;23;20616;-86
2023/04/24 11:24:52;;;;;;;3.78;2.10;;;18.90;49.50;;;;;;6080376;23;20152;-86
2023/04/24 11:27:24;;;;;;;2.70;2.00;;;18.90;49.60;;;;;;6055733;23;20699;-86
2023/04/24 11:30:02;;;;;;;2.65;2.22;;;18.90;49.40;;;;;;6081109;23;20204;-85
2023/04/24 11:32:47;;;;;;;2.15;1.95;;;19.00;49.50;;;;;;6199713;23;20166;-85
2023/04/24 11:35:17;;;;;;;2.78;2.08;;;19.00;49.50;;;;;;6199689;23;20142;-86
2023/04/24 11:37:49;;;;;;;2.10;1.90;;;19.00;49.40;;;;;;6200547;23;20297;-86
2023/04/24 11:40:20;;;;;;;2.30;2.10;;;18.90;49.30;;;;;;6177150;23;20156;-87
2023/04/24 11:42:50;;;;;;;2.58;2.13;;;19.00;49.20;;;;;;6152351;23;20532;-85
2023/04/24 11:45:47;;;;;;;2.40;2.10;;;19.10;48.90;;;;;;6181339;23;20653;-85
2023/04/24 11:48:22;;;;;;;2.10;1.90;;;19.10;49.10;;;;;;6181062;23;20151;-85
2023/04/24 11:51:16;;;;;;;2.60;2.22;;;19.10;49.20;;;;;;6082583;23;20170;-85
2023/04/24 11:53:53;;;;;;;2.70;1.95;;;19.00;49.40;;;;;;6128351;23;20155;-86
2023/04/24 11:56:23;;;;;;;2.28;2.08;;;19.00;49.10;;;;;;6171633;23;20222;-87
2023/04/24 11:58:55;;;;;;;2.63;2.10;;;19.00;49.30;;;;;;6147228;23;20182;-85
2023/04/24 12:02:04;;;;;;;2.17;1.90;;;18.90;49.50;;;;;;6051888;23;20138;-87
2023/04/24 12:04:38;;;;;;;3.85;2.08;;;19.00;49.30;;;;;;6006980;23;20142;-83
2023/04/24 12:07:07;;;;;;;3.13;1.88;;;18.90;49.40;;;;;;6030740;23;20154;-86
2023/04/24 12:09:45;;;;;;;2.67;2.00;;;18.90;49.30;;;;;;6027562;23;20190;-86
2023/04/24 12:12:12;;;;;;;1.92;1.83;;;18.90;49.30;;;;;;6026114;23;20157;-84
2023/04/24 12:14:55;;;;;;;2.47;2.08;;;18.80;49.20;;;;;;6000868;23;20251;-87
2023/04/24 12:17:29;;;;;;;2.25;1.98;;;19.00;49.20;;;;;;6025818;23;20222;-86
2023/04/24 12:20:08;;;;;;;3.15;1.98;;;19.00;49.00;;;;;;6028899;23;20161;-86
2023/04/24 12:23:00;;;;;;;3.38;1.80;;;19.00;49.20;;;;;;6116365;23;20154;-85
2023/04/24 12:25:29;;;;;;;1.85;1.70;;;19.00;48.90;;;;;;6135002;23;20276;-85
2023/04/24 12:28:16;;;;;;;1.98;1.88;;;19.00;49.00;;;;;;6109792;23;20156;-85
2023/04/24 12:30:45;;;;;;;2.08;1.88;;;19.00;48.90;;;;;;6143050;23;20198;-84
2023/04/24 12:33:10;;;;;;;2.33;2.00;;;19.00;48.90;;;;;;6219625;22;20631;-83
2023/04/24 12:35:36;;;;;;;1.63;1.52;;;18.90;49.00;;;;;;6225008;22;20236;-83
2023/04/24 12:38:07;;;;;;;2.10;1.90;;;18.90;48.90;;;;;;6175445;23;20183;-83
2023/04/24 12:40:33;;;;;;;3.58;2.00;;;18.90;48.90;;;;;;6130664;22;20132;-84
2023/04/24 12:42:59;;;;;;;2.10;1.75;;;18.90;49.00;;;;;;6130163;23;20236;-84
2023/04/24 12:45:34;;;;;;;1.75;1.58;;;19.00;48.90;;;;;;6153659;23;20140;-84
2023/04/24 12:47:59;;;;;;;2.20;1.80;;;19.00;48.90;;;;;;6153933;23;20131;-84
2023/04/24 12:50:25;;;;;;;1.90;1.70;;;19.00;48.90;;;;;;6103466;23;20234;-85
2023/04/24 12:52:51;;;;;;;1.70;1.60;;;19.00;48.90;;;;;;6105000;23;20148;-85
2023/04/24 12:55:17;;;;;;;2.38;1.90;;;18.90;48.80;;;;;;6158994;23;20155;-84
2023/04/24 12:57:42;;;;;;;2.13;1.83;;;19.00;48.90;;;;;;6128149;23;20396;-85
2023/04/24 13:00:09;;;;;;;2.00;1.80;;;19.00;49.50;;;;;;6154968;23;20160;-83
2023/04/24 13:02:36;;;;;;;2.00;1.70;;;19.00;48.80;;;;;;6130413;23;20148;-85
2023/04/24 13:05:02;;;;;;;2.10;1.70;;;19.00;48.80;;;;;;6130948;23;20143;-84
2023/04/24 13:07:27;;;;;;;2.42;1.80;;;18.90;48.70;;;;;;6108239;23;20152;-85
2023/04/24 13:09:54;;;;;;;1.90;1.77;;;19.00;48.60;;;;;;6132945;23;20136;-84
2023/04/24 13:12:21;;;;;;;2.72;2.00;;;19.00;48.60;;;;;;6132077;23;20143;-84
2023/04/24 13:14:47;;;;;;;3.10;2.00;;;19.00;48.70;;;;;;6133875;22;20151;-85
2023/04/24 13:17:14;;;;;;;4.45;1.80;;;19.00;48.40;;;;;;6156102;23;20135;-85
2023/04/24 13:19:42;;;;;;;2.40;1.80;;;19.00;48.20;;;;;;6131475;23;20225;-85
2023/04/24 13:22:09;;;;;;;2.47;1.95;;;19.10;48.30;;;;;;6133407;22;20184;-85
2023/04/24 13:24:35;;;;;;;2.20;1.90;;;19.00;48.40;;;;;;6156888;23;20158;-86
2023/04/24 13:27:02;;;;;;;2.00;1.80;;;19.00;48.20;;;;;;6131583;23;20191;-84
2023/04/24 13:29:37;;;;;;;2.42;1.77;;;19.00;48.40;;;;;;6132552;23;20148;-86
2023/04/24 13:32:04;;;;;;;1.85;1.75;;;19.00;48.40;;;;;;6105099;23;20590;-84
2023/04/24 13:34:30;;;;;;;4.68;1.95;;;19.00;48.40;;;;;;6153549;23;20128;-85
2023/04/24 13:36:56;;;;;;;3.28;1.95;;;19.00;48.50;;;;;;6132374;23;20155;-83
2023/04/24 13:39:22;;;;;;;1.83;1.73;;;19.00;48.40;;;;;;6108058;23;20197;-85
2023/04/24 13:41:48;;;;;;;2.03;1.80;;;19.00;48.30;;;;;;6104595;23;20198;-86
2023/04/24 13:44:19;;;;;;;2.00;1.80;;;19.00;48.40;;;;;;6129074;23;20200;-85
2023/04/24 13:46:46;;;;;;;2.00;1.80;;;19.00;48.40;;;;;;6129699;23;20163;-84
2023/04/24 13:49:12;;;;;;;2.03;1.83;;;19.00;48.30;;;;;;6154038;23;20211;-86
2023/04/24 13:51:50;;;;;;;2.08;1.75;;;19.00;48.20;;;;;;6105415;23;20160;-85
2023/04/24 13:54:25;;;;;;;2.00;1.80;;;18.90;48.20;;;;;;6156128;23;20135;-86
2023/04/24 13:56:51;;;;;;;1.88;1.67;;;19.00;48.10;;;;;;6109369;23;20147;-84
2023/04/24 13:59:17;;;;;;;1.98;1.60;;;19.00;48.20;;;;;;6130339;23;20180;-86
2023/04/24 14:01:44;;;;;;;2.30;1.70;;;19.00;48.00;;;;;;6128255;23;20567;-83
2023/04/24 14:04:10;;;;;;;2.10;1.92;;;19.00;48.00;;;;;;6127703;23;20433;-84
2023/04/24 14:06:36;;;;;;;2.42;1.90;;;19.10;48.10;;;;;;6102345;23;20491;-85
2023/04/24 14:09:03;;;;;;;2.05;1.70;;;19.10;48.20;;;;;;6151093;23;20142;-83
2023/04/24 14:11:35;;;;;;;1.50;1.40;;;19.10;48.10;;;;;;6153374;23;20135;-83
2023/04/24 14:14:00;;;;;;;1.90;1.67;;;19.00;48.10;;;;;;6128262;23;20202;-85
2023/04/24 14:16:26;;;;;;;2.00;1.63;;;19.00;48.00;;;;;;6102607;23;20155;-83
2023/04/24 14:18:52;;;;;;;2.28;1.60;;;19.00;48.00;;;;;;6152465;23;20234;-84
2023/04/24 14:21:17;;;;;;;2.08;1.88;;;19.00;47.80;;;;;;6151842;23;20571;-83
2023/04/24 14:23:48;;;;;;;2.10;1.90;;;19.10;48.20;;;;;;6130771;23;20230;-84
2023/04/24 14:26:14;;;;;;;2.03;1.83;;;19.10;47.80;;;;;;6128262;22;20136;-83
2023/04/24 14:28:41;;;;;;;2.00;1.80;;;19.10;48.00;;;;;;6127401;22;20578;-82
2023/04/24 14:31:07;;;;;;;1.80;1.70;;;19.10;47.90;;;;;;6175826;22;20210;-85
2023/04/24 14:33:35;;;;;;;2.05;1.85;;;19.10;48.00;;;;;;6231030;22;20547;-84
2023/04/24 14:36:05;;;;;;;1.85;1.75;;;19.00;47.90;;;;;;6205418;23;20598;-83
2023/04/24 14:38:31;;;;;;;2.38;1.48;;;18.90;47.80;;;;;;6251351;22;20236;-82
2023/04/24 14:40:57;;;;;;;3.63;1.77;;;19.00;48.00;;;;;;6204519;22;20146;-83
2023/04/24 14:43:22;;;;;;;2.08;1.70;;;18.90;47.90;;;;;;6229466;23;20144;-83
2023/04/24 14:45:48;;;;;;;2.03;1.83;;;19.00;47.90;;;;;;6254240;22;20142;-85
2023/04/24 14:48:16;;;;;;;1.50;1.40;;;19.00;48.00;;;;;;6254935;22;20457;-84
2023/04/24 14:50:41;;;;;;;1.75;1.65;;;18.90;48.20;;;;;;6229707;22;20454;-82
2023/04/24 14:53:07;;;;;;;1.85;1.60;;;19.10;47.80;;;;;;6229341;23;20581;-84
2023/04/24 14:55:35;;;;;;;2.30;2.05;;;19.00;48.20;;;;;;6229091;23;20163;-84
2023/04/24 14:58:02;;;;;;;2.10;1.90;;;19.00;48.90;;;;;;6205972;22;20668;-82
2023/04/24 15:00:27;;;;;;;3.30;2.10;;;19.00;48.20;;;;;;6229983;22;20139;-82
2023/04/24 15:02:56;;;;;;;3.47;1.90;;;19.00;48.20;;;;;;6229284;22;20457;-84
2023/04/24 15:05:22;;;;;;;3.25;1.77;;;19.00;48.10;;;;;;6255136;22;20158;-83
2023/04/24 15:07:48;;;;;;;4.03;1.60;;;19.00;48.40;;;;;;6253898;22;20147;-84
2023/04/24 15:10:14;;;;;;;2.80;1.88;;;19.00;48.20;;;;;;6202241;23;20151;-84
2023/04/24 15:12:39;;;;;;;1.95;1.75;;;19.00;47.80;;;;;;6228853;23;20478;-83
2023/04/24 15:15:06;;;;;;;2.70;1.50;;;19.00;47.90;;;;;;6229021;22;20169;-84
2023/04/24 15:17:31;;;;;;;2.55;1.80;;;19.10;47.80;;;;;;6202299;23;20467;-83
2023/04/24 15:20:00;;;;;;;2.75;1.73;;;19.10;47.90;;;;;;6254312;22;20289;-84
2023/04/24 15:22:26;;;;;;;2.92;2.03;;;19.00;47.90;;;;;;6232002;22;20154;-83
2023/04/24 15:24:56;;;;;;;3.13;1.60;;;19.00;48.20;;;;;;6233315;22;20558;-84
2023/04/24 15:27:26;;;;;;;2.15;1.85;;;19.00;47.90;;;;;;6257811;22;20494;-85
2023/04/24 15:29:53;;;;;;;2.95;2.38;;;19.10;47.80;;;;;;6233531;22;20595;-83
2023/04/24 15:32:19;;;;;;;1.70;1.60;;;19.00;47.90;;;;;;6256539;22;20482;-83
2023/04/24 15:34:45;;;;;;;2.10;1.90;;;19.00;47.90;;;;;;6154289;23;20632;-81
2023/04/24 15:37:11;;;;;;;2.47;1.75;;;19.00;48.00;;;;;;6232740;22;20172;-82
2023/04/24 15:39:37;;;;;;;4.32;2.10;;;19.10;48.00;;;;;;6232000;23;20177;-83
2023/04/24 15:42:03;;;;;;;1.80;1.70;;;19.10;48.10;;;;;;6233160;22;20151;-83
2023/04/24 15:44:29;;;;;;;2.40;2.00;;;19.10;47.90;;;;;;6232422;22;20624;-84
2023/04/24 15:46:55;;;;;;;3.60;2.00;;;19.00;48.00;;;;;;6257139;22;20167;-85
2023/04/24 15:49:20;;;;;;;2.63;1.85;;;19.00;47.70;;;;;;6232425;22;20159;-84
2023/04/24 15:51:46;;;;;;;3.72;1.63;;;19.00;47.50;;;;;;6155296;23;20140;-83
2023/04/24 15:54:12;;;;;;;1.80;1.70;;;19.10;47.60;;;;;;6232908;23;20174;-84
2023/04/24 15:56:37;;;;;;;1.90;1.70;;;19.00;47.30;;;;;;6234689;22;20151;-84
2023/04/24 15:59:03;;;;;;;2.53;1.70;;;19.10;47.50;;;;;;6232065;23;20217;-84
2023/04/24 16:01:30;;;;;;;1.90;1.70;;;19.10;47.30;;;;;;6235661;22;20144;-83
2023/04/24 16:03:56;;;;;;;2.42;1.85;;;19.10;47.30;;;;;;6258888;22;20132;-85
2023/04/24 16:06:22;;;;;;;3.20;2.03;;;19.10;47.10;;;;;;6232858;22;20154;-85
2023/04/24 16:08:49;;;;;;;3.08;1.90;;;19.10;47.20;;;;;;6231625;23;20465;-83
2023/04/24 16:11:14;;;;;;;2.78;1.90;;;19.10;47.30;;;;;;6207322;22;20201;-84
2023/04/24 16:13:40;;;;;;;2.85;2.00;;;19.10;47.30;;;;;;6207935;23;20475;-84
2023/04/24 16:16:06;;;;;;;1.83;1.73;;;19.00;47.20;;;;;;6234688;22;20155;-84
2023/04/24 16:18:32;;;;;;;4.05;2.40;;;19.00;47.40;;;;;;6234397;22;20175;-83
2023/04/24 16:20:58;;;;;;;2.20;2.00;;;19.00;47.40;;;;;;6235015;22;20148;-83
2023/04/24 16:23:23;;;;;;;1.80;1.70;;;19.00;47.50;;;;;;6194255;23;20225;-83
2023/04/24 16:25:52;;;;;;;2.72;1.88;;;18.90;47.40;;;;;;6193143;23;20632;-84
2023/04/24 16:28:17;;;;;;;3.22;2.03;;;19.00;47.40;;;;;;6193265;23;20161;-83
2023/04/24 16:30:43;;;;;;;3.60;1.95;;;19.10;47.40;;;;;;6196138;23;20244;-84
2023/04/24 16:33:10;;;;;;;2.42;2.00;;;19.00;47.40;;;;;;6195414;23;20213;-84
2023/04/24 16:35:38;;;;;;;2.55;2.00;;;19.00;47.40;;;;;;6170956;23;20142;-85
2023/04/24 16:38:03;;;;;;;2.50;1.92;;;19.00;47.40;;;;;;6197677;23;20174;-85
2023/04/24 16:40:33;;;;;;;2.53;2.08;;;19.00;47.30;;;;;;6194008;23;20130;-84
2023/04/24 16:42:59;;;;;;;2.00;1.85;;;18.90;47.30;;;;;;6168004;23;20175;-84
2023/04/24 16:45:25;;;;;;;3.13;2.10;;;18.90;47.90;;;;;;6168318;23;20153;-84
2023/04/24 16:47:50;;;;;;;2.25;2.00;;;18.90;47.30;;;;;;6169033;23;20280;-84
2023/04/24 16:50:16;;;;;;;1.98;1.75;;;18.90;47.20;;;;;;6195875;23;20283;-84
2023/04/24 16:52:42;;;;;;;2.40;1.80;;;18.90;47.80;;;;;;6192794;23;20138;-83
2023/04/24 16:55:08;;;;;;;4.00;1.80;;;19.00;47.00;;;;;;6242830;22;20155;-83
2023/04/24 16:57:34;;;;;;;2.15;1.70;;;19.00;47.10;;;;;;6258650;22;20183;-82